MTS Valour — MPVV8 — position and weather

sailwx.info

Track history (hours):
 
Tides and Currents Weather Stations Pressure Air Temp Water Temp Dewpoint Dewpoint Depression Visibility Wind Speed Wind Dir Waves Ship Positions

MTS Valour

Last reported at 2017-May-26 18:17 UTC. Time now 2017-May-26 18:41 UTC.
Position N 52°36' E 001°44'.

Length 24 m; draft 2.4 m.

Type: Tug. MMSI: 235040596.

Date/timePositionNaut miles runAvg speedWind from/ knotsBaromVisibWave heightAir tempDewpointWater temp
2017-May-26 18:17N 52°36' E 001°44'0 0.0
2017-May-26 17:59N 52°36' E 001°44'0 0.0
2017-May-26 17:29N 52°36' E 001°44'0 0.0
2017-May-26 16:56N 52°36' E 001°44'0 0.0
2017-May-26 16:29N 52°36' E 001°44'0 0.0
2017-May-26 15:53N 52°36' E 001°44'0 0.0
2017-May-26 15:26N 52°36' E 001°44'0 0.0
2017-May-26 14:44N 52°36' E 001°44'0 0.0
2017-May-26 14:23N 52°36' E 001°44'0 0.0
2017-May-26 12:56N 52°36' E 001°44'0 0.0
2017-May-26 12:08N 52°36' E 001°44'0 0.0
2017-May-26 11:44N 52°36' E 001°44'0 0.0
2017-May-26 11:26N 52°36' E 001°44'0 0.0
2017-May-26 10:56N 52°36' E 001°44'0 0.0
2017-May-26 10:20N 52°36' E 001°44'0 0.0
2017-May-26 09:56N 52°36' E 001°44'0 0.0
2017-May-26 09:26N 52°36' E 001°44'0 0.0
2017-May-26 08:56N 52°36' E 001°44'0 0.0
2017-May-26 08:26N 52°36' E 001°44'0 0.0
2017-May-26 07:59N 52°36' E 001°44'0 0.0
2017-May-26 07:29N 52°36' E 001°44'0 0.0
2017-May-26 06:59N 52°36' E 001°44'0 0.0
2017-May-26 06:29N 52°36' E 001°44'0 0.0
2017-May-26 05:59N 52°36' E 001°44'0 0.0
2017-May-26 05:29N 52°36' E 001°44'0 0.0
2017-May-26 04:47N 52°36' E 001°44'0 0.0
2017-May-26 04:26N 52°36' E 001°44'0 0.0
2017-May-26 03:59N 52°36' E 001°44'0 0.0
2017-May-26 03:05N 52°36' E 001°44'0 0.0
2017-May-26 02:59N 52°36' E 001°44'0 0.0
2017-May-25 23:53N 52°36' E 001°44'0 0.0
2017-May-25 23:29N 52°36' E 001°44'0 0.0
2017-May-25 22:56N 52°36' E 001°44'1 2.4
2017-May-25 22:31N 52°35' E 001°44'4 7.8
2017-May-25 22:00N 52°33' E 001°49'12 8.7
2017-May-25 20:35N 52°24' E 002°03'1 8.6
2017-May-25 20:30N 52°23' E 002°04'4 8.3
2017-May-25 20:01N 52°20' E 002°08'1 2.2
2017-May-25 19:31N 52°19' E 002°09'0 0.0
2017-May-25 19:01N 52°19' E 002°09'16 8.7
2017-May-25 17:08N 52°28' E 001°46'1 8.2
2017-May-25 17:01N 52°28' E 001°45'0 0.5
2017-May-25 16:31N 52°28' E 001°45'0 0.0
2017-May-25 16:00N 52°28' E 001°45'0 0.0
2017-May-25 15:30N 52°28' E 001°45'0 0.0
2017-May-25 15:00N 52°28' E 001°45'0 0.0
2017-May-25 14:00N 52°28' E 001°45'0 0.0
2017-May-25 13:30N 52°28' E 001°45'0 0.0
2017-May-25 13:00N 52°28' E 001°45'0 0.0
2017-May-25 12:30N 52°28' E 001°45'0 0.0
2017-May-25 12:00N 52°28' E 001°45'0 0.0
2017-May-25 11:30N 52°28' E 001°45'0 0.0
2017-May-25 11:00N 52°28' E 001°45'0 0.0
2017-May-25 10:30N 52°28' E 001°45'4 4.7
2017-May-25 09:41N 52°32' E 001°46'210.3
2017-May-25 09:31N 52°34' E 001°45'3 5.0
2017-May-25 09:01N 52°36' E 001°44'0 0.0
2017-May-25 08:31N 52°36' E 001°44'0 0.0
2017-May-25 08:01N 52°36' E 001°44'0 0.0
2017-May-25 07:31N 52°36' E 001°44'0 0.0
2017-May-25 07:00N 52°36' E 001°44'0 0.0
2017-May-25 06:30N 52°36' E 001°44'0 0.0
2017-May-25 06:00N 52°36' E 001°44'0 0.0
2017-May-25 05:30N 52°36' E 001°44'0 0.0
2017-May-25 04:54N 52°36' E 001°44'0 0.0
2017-May-25 03:51N 52°36' E 001°44'0 0.0
2017-May-25 03:24N 52°36' E 001°44'0 0.0
2017-May-25 01:27N 52°36' E 001°44'0 0.0
2017-May-25 00:57N 52°36' E 001°44'0 0.0
2017-May-24 23:39N 52°36' E 001°44'0 0.0
2017-May-24 23:30N 52°36' E 001°44'0 0.0
2017-May-24 21:21N 52°36' E 001°44'0 0.0
2017-May-24 20:57N 52°36' E 001°44'0 0.0
2017-May-24 20:27N 52°36' E 001°44'0 0.0
2017-May-24 19:57N 52°36' E 001°44'0 0.0
2017-May-24 19:24N 52°36' E 001°44'0 0.0
2017-May-24 18:57N 52°36' E 001°44'0 0.0
2017-May-24 18:27N 52°36' E 001°44'0 0.0
2017-May-24 18:00N 52°36' E 001°44'0 0.0
2017-May-24 17:30N 52°36' E 001°44'0 0.0
2017-May-24 16:57N 52°36' E 001°44'0 0.0
2017-May-24 16:30N 52°36' E 001°44'0 0.0
2017-May-24 16:00N 52°36' E 001°44'0 0.0
2017-May-24 15:30N 52°36' E 001°44'0 0.0
2017-May-24 15:00N 52°36' E 001°44'0 0.0
2017-May-24 14:27N 52°36' E 001°44'0 0.0
2017-May-24 13:27N 52°36' E 001°44'0 0.0
2017-May-24 12:57N 52°36' E 001°44'0 0.0
2017-May-24 12:27N 52°36' E 001°44'0 0.0
2017-May-24 11:57N 52°36' E 001°44'0 0.0
2017-May-24 11:27N 52°36' E 001°44'0 0.0
2017-May-24 11:00N 52°36' E 001°44'0 0.0
2017-May-24 10:27N 52°36' E 001°44'0 0.0
2017-May-24 09:57N 52°36' E 001°44'0 0.0
2017-May-24 09:30N 52°36' E 001°44'0 0.0
2017-May-24 09:00N 52°36' E 001°44'0 0.0
2017-May-24 08:30N 52°36' E 001°44'0 0.0
2017-May-24 08:00N 52°36' E 001°44'0 0.0
2017-May-24 07:30N 52°36' E 001°44'0 0.0
2017-May-24 06:57N 52°36' E 001°44'0 0.0
2017-May-24 06:30N 52°36' E 001°44'0 0.0
2017-May-24 05:54N 52°36' E 001°44'0 0.0
2017-May-24 05:30N 52°36' E 001°44'0 0.0
2017-May-24 04:54N 52°36' E 001°44'0 0.0
2017-May-24 04:15N 52°36' E 001°44'0 0.0
2017-May-24 04:00N 52°36' E 001°44'0 0.0
2017-May-24 03:30N 52°36' E 001°44'0 0.0
2017-May-24 02:15N 52°36' E 001°44'0 0.0
2017-May-24 01:57N 52°36' E 001°44'0 0.0
2017-May-24 01:15N 52°36' E 001°44'0 0.0
2017-May-23 16:33N 52°36' E 001°44'0 0.0
2017-May-23 16:21N 52°36' E 001°44'0 0.0
2017-May-23 15:57N 52°36' E 001°44'0 0.0
2017-May-23 15:27N 52°36' E 001°44'0 0.0
2017-May-23 15:00N 52°36' E 001°44'0 0.0
2017-May-23 13:45N 52°36' E 001°44'0 0.0
2017-May-23 13:27N 52°36' E 001°44'0 0.0
2017-May-23 13:00N 52°36' E 001°44'0 0.0
2017-May-23 12:21N 52°36' E 001°44'0 0.0
2017-May-23 11:57N 52°36' E 001°44'0 0.0
2017-May-23 11:27N 52°36' E 001°44'0 0.0
2017-May-23 10:57N 52°36' E 001°44'0 0.0
2017-May-23 10:30N 52°36' E 001°44'0 0.0
2017-May-23 10:00N 52°36' E 001°44'0 0.0
2017-May-23 09:30N 52°36' E 001°44'0 0.0
2017-May-23 08:57N 52°36' E 001°44'0 0.0
2017-May-23 08:30N 52°36' E 001°44'0 0.0
2017-May-23 08:00N 52°36' E 001°44'0 0.0
2017-May-23 07:30N 52°36' E 001°44'0 0.0
2017-May-23 07:00N 52°36' E 001°44'0 0.0
2017-May-23 06:30N 52°36' E 001°44'0 0.0
2017-May-23 06:00N 52°36' E 001°44'0 0.0
2017-May-23 05:30N 52°36' E 001°44'0 0.0
2017-May-23 05:00N 52°36' E 001°44'0 0.0
2017-May-23 04:27N 52°36' E 001°44'0 0.0
2017-May-23 03:45N 52°36' E 001°44'0 0.0
2017-May-23 03:30N 52°36' E 001°44'0 0.0
2017-May-23 02:51N 52°36' E 001°44'0 0.0
2017-May-23 02:18N 52°36' E 001°44'0 0.0
2017-May-23 02:00N 52°36' E 001°44'0 0.0
2017-May-23 01:30N 52°36' E 001°44'0 0.0
2017-May-23 00:21N 52°36' E 001°44'0 0.0
2017-May-22 22:33N 52°36' E 001°44'0 0.1
2017-May-22 22:27N 52°36' E 001°44'0 0.0
2017-May-22 21:51N 52°36' E 001°44'0 0.0
2017-May-22 21:27N 52°36' E 001°44'0 0.0
2017-May-22 20:57N 52°36' E 001°44'0 0.0
2017-May-22 18:33N 52°36' E 001°44'0 0.0
2017-May-22 18:24N 52°36' E 001°44'0 0.0
2017-May-22 17:51N 52°36' E 001°44'0 0.0
2017-May-22 17:18N 52°36' E 001°44'0 0.0
2017-May-22 16:57N 52°36' E 001°44'0 0.0
2017-May-22 16:27N 52°36' E 001°44'0 0.0
2017-May-22 15:57N 52°36' E 001°44'0 0.0
2017-May-22 15:27N 52°36' E 001°44'0 0.0
2017-May-22 14:57N 52°36' E 001°44'0 0.0
2017-May-22 13:03N 52°36' E 001°44'0 0.0
2017-May-22 13:00N 52°36' E 001°44'0 0.0
2017-May-22 12:30N 52°36' E 001°44'0 0.0
2017-May-22 12:00N 52°36' E 001°44'0 0.0
2017-May-22 11:30N 52°36' E 001°44'0 0.0
2017-May-22 11:00N 52°36' E 001°44'0 0.0
2017-May-22 10:30N 52°36' E 001°44'0 0.0
2017-May-22 10:00N 52°36' E 001°44'0 0.0
2017-May-22 09:30N 52°36' E 001°44'0 0.0
2017-May-22 09:00N 52°36' E 001°44'0 0.0
2017-May-22 08:24N 52°36' E 001°44'0 0.0
2017-May-22 08:00N 52°36' E 001°44'0 0.0
2017-May-22 07:30N 52°36' E 001°44'0 0.0
2017-May-22 07:00N 52°36' E 001°44'0 0.0
2017-May-22 06:30N 52°36' E 001°44'0 0.0
2017-May-22 06:00N 52°36' E 001°44'0 0.0
2017-May-22 05:30N 52°36' E 001°44'0 0.0
2017-May-22 05:00N 52°36' E 001°44'0 0.0
2017-May-22 04:30N 52°36' E 001°44'0 0.0
2017-May-22 04:00N 52°36' E 001°44'0 0.0
2017-May-22 03:24N 52°36' E 001°44'0 0.0
2017-May-22 03:00N 52°36' E 001°44'0 0.0
2017-May-22 02:27N 52°36' E 001°44'0 0.0
2017-May-22 02:00N 52°36' E 001°44'0 0.0
2017-May-22 01:30N 52°36' E 001°44'0 0.0
2017-May-22 00:54N 52°36' E 001°44'0 0.0
2017-May-22 00:24N 52°36' E 001°44'0 0.0
2017-May-22 00:00N 52°36' E 001°44'0 0.0
2017-May-21 23:30N 52°36' E 001°44'0 0.0
2017-May-21 22:48N 52°36' E 001°44'0 0.0
2017-May-21 22:30N 52°36' E 001°44'0 0.0
2017-May-21 21:36N 52°36' E 001°44'0 0.0
2017-May-21 21:30N 52°36' E 001°44'0 0.0
2017-May-21 20:12N 52°36' E 001°44'0 0.0
2017-May-21 19:48N 52°36' E 001°44'0 0.0
2017-May-21 19:15N 52°36' E 001°44'0 0.0
2017-May-21 18:48N 52°36' E 001°44'0 0.0
2017-May-21 18:24N 52°36' E 001°44'0 0.0
2017-May-21 17:57N 52°36' E 001°44'0 0.0
2017-May-21 17:30N 52°36' E 001°44'0 0.0
2017-May-21 16:57N 52°36' E 001°44'0 0.0
2017-May-21 16:30N 52°36' E 001°44'0 0.0
2017-May-21 16:00N 52°36' E 001°44'0 0.0
2017-May-21 15:30N 52°36' E 001°44'0 0.0
2017-May-21 14:54N 52°36' E 001°44'0 0.0
2017-May-21 14:30N 52°36' E 001°44'0 0.0
2017-May-21 13:27N 52°36' E 001°44'0 0.0
2017-May-21 12:48N 52°36' E 001°44'0 0.0
2017-May-21 12:30N 52°36' E 001°44'0 0.0
2017-May-21 11:57N 52°36' E 001°44'0 0.0
2017-May-21 11:30N 52°36' E 001°44'0 0.0
2017-May-21 11:00N 52°36' E 001°44'0 0.0
2017-May-21 10:30N 52°36' E 001°44'0 0.0
2017-May-21 10:00N 52°36' E 001°44'0 0.0
2017-May-21 09:30N 52°36' E 001°44'0 0.0
2017-May-21 08:57N 52°36' E 001°44'0 0.0
2017-May-21 08:30N 52°36' E 001°44'0 0.0
2017-May-21 08:00N 52°36' E 001°44'0 0.0
2017-May-21 07:30N 52°36' E 001°44'0 0.0
2017-May-21 06:54N 52°36' E 001°44'0 0.0
2017-May-21 06:27N 52°36' E 001°44'0 0.0
2017-May-21 06:00N 52°36' E 001°44'0 0.0
2017-May-21 04:03N 52°36' E 001°44'0 0.0
2017-May-21 03:48N 52°36' E 001°44'0 0.0
2017-May-21 03:30N 52°36' E 001°44'0 0.0
2017-May-21 03:00N 52°36' E 001°44'0 0.0
2017-May-21 02:30N 52°36' E 001°44'0 0.0
2017-May-21 01:54N 52°36' E 001°44'0 0.0
2017-May-21 01:30N 52°36' E 001°44'0 0.0
2017-May-21 00:57N 52°36' E 001°44'0 0.0
2017-May-21 00:27N 52°36' E 001°44'0 0.0
2017-May-21 00:00N 52°36' E 001°44'0 0.0
2017-May-20 23:30N 52°36' E 001°44'0 0.0
2017-May-20 23:00N 52°36' E 001°44'0 0.0
2017-May-20 22:30N 52°36' E 001°44'0 0.0
2017-May-20 22:00N 52°36' E 001°44'0 0.0
2017-May-20 21:30N 52°36' E 001°44'0 0.0
2017-May-20 21:00N 52°36' E 001°44'0 0.0
2017-May-20 20:27N 52°36' E 001°44'0 0.0
2017-May-20 19:57N 52°36' E 001°44'0 0.0
2017-May-20 19:21N 52°36' E 001°44'0 0.0
2017-May-20 18:48N 52°36' E 001°44'0 0.0
2017-May-20 18:30N 52°36' E 001°44'0 0.0
2017-May-20 18:00N 52°36' E 001°44'0 0.0
2017-May-20 17:24N 52°36' E 001°44'0 0.0
2017-May-20 16:51N 52°36' E 001°44'0 0.0
2017-May-20 16:30N 52°36' E 001°44'0 0.0
2017-May-20 15:57N 52°36' E 001°44'0 0.0
2017-May-20 15:30N 52°36' E 001°44'0 0.0
2017-May-20 15:00N 52°36' E 001°44'0 0.0
2017-May-20 14:30N 52°36' E 001°44'0 0.0
2017-May-20 13:30N 52°36' E 001°44'0 0.0
2017-May-20 12:57N 52°36' E 001°44'0 0.0
2017-May-20 12:30N 52°36' E 001°44'0 0.0
2017-May-20 11:57N 52°36' E 001°44'0 0.0
2017-May-20 11:27N 52°36' E 001°44'0 0.0
2017-May-20 11:00N 52°36' E 001°44'0 0.0
2017-May-20 10:24N 52°36' E 001°44'0 0.0
2017-May-20 10:00N 52°36' E 001°44'0 0.0
2017-May-20 09:30N 52°36' E 001°44'0 0.0
2017-May-20 09:00N 52°36' E 001°44'0 0.0
2017-May-20 08:30N 52°36' E 001°44'0 0.0
2017-May-20 08:00N 52°36' E 001°44'0 0.0
2017-May-20 07:30N 52°36' E 001°44'0 0.0
2017-May-20 07:00N 52°36' E 001°44'0 0.0
2017-May-20 06:30N 52°36' E 001°44'0 0.0
2017-May-20 06:00N 52°36' E 001°44'0 0.0
2017-May-20 04:21N 52°36' E 001°44'0 0.0
2017-May-20 02:33N 52°36' E 001°44'0 0.0
2017-May-20 02:12N 52°36' E 001°44'0 0.0
2017-May-20 02:00N 52°36' E 001°44'0 0.0
2017-May-20 01:27N 52°36' E 001°44'0 0.0
2017-May-19 23:30N 52°36' E 001°44'0 0.0
2017-May-19 22:54N 52°36' E 001°44'0 0.0
2017-May-19 20:00N 52°36' E 001°44'0 0.0
2017-May-19 19:27N 52°36' E 001°44'0 0.0
2017-May-19 18:57N 52°36' E 001°44'0 0.0
2017-May-19 18:30N 52°36' E 001°44'0 0.0
2017-May-19 17:51N 52°36' E 001°44'0 0.0
2017-May-19 17:21N 52°36' E 001°44'0 0.0
2017-May-19 16:57N 52°36' E 001°44'0 0.0
2017-May-19 16:30N 52°36' E 001°44'0 0.0
2017-May-19 15:57N 52°36' E 001°44'0 0.0
2017-May-19 15:27N 52°36' E 001°44'0 0.0
2017-May-19 14:57N 52°36' E 001°44'0 0.0
2017-May-19 14:27N 52°36' E 001°44'0 0.0
2017-May-19 13:21N 52°36' E 001°44'0 0.0
2017-May-19 13:00N 52°36' E 001°44'0 0.0
2017-May-19 12:30N 52°36' E 001°44'0 0.0
2017-May-19 12:00N 52°36' E 001°44'0 0.0
2017-May-19 11:00N 52°36' E 001°44'0 0.0
2017-May-19 10:30N 52°36' E 001°44'0 0.0
2017-May-19 10:00N 52°36' E 001°44'0 0.0
2017-May-19 09:30N 52°36' E 001°44'0 0.0
2017-May-19 09:00N 52°36' E 001°44'0 0.0
2017-May-19 08:27N 52°36' E 001°44'0 0.0
2017-May-19 07:57N 52°36' E 001°44'0 0.0
2017-May-19 07:30N 52°36' E 001°44'0 0.0
2017-May-19 07:00N 52°36' E 001°44'0 0.0
2017-May-19 06:30N 52°36' E 001°44'0 0.0
2017-May-19 05:57N 52°36' E 001°44'0 0.0
2017-May-19 05:30N 52°36' E 001°44'0 0.0
2017-May-19 05:00N 52°36' E 001°44'0 0.0
2017-May-19 04:27N 52°36' E 001°44'0 0.0
2017-May-19 03:57N 52°36' E 001°44'0 0.0
2017-May-19 03:27N 52°36' E 001°44'0 0.0
2017-May-19 02:57N 52°36' E 001°44'0 0.0
2017-May-19 02:30N 52°36' E 001°44'0 0.0
2017-May-19 02:00N 52°36' E 001°44'0 0.0
2017-May-19 01:30N 52°36' E 001°44'0 0.0
2017-May-19 01:00N 52°36' E 001°44'0 0.0
2017-May-19 00:27N 52°36' E 001°44'0 0.0
2017-May-18 23:57N 52°36' E 001°44'0 0.0
2017-May-18 23:27N 52°36' E 001°44'0 0.0
2017-May-18 23:00N 52°36' E 001°44'0 0.0
2017-May-18 22:30N 52°36' E 001°44'0 0.0
2017-May-18 21:57N 52°36' E 001°44'0 0.0
2017-May-18 21:24N 52°36' E 001°44'0 0.0
2017-May-18 16:00N 52°36' E 001°44'0 0.0
2017-May-18 15:30N 52°36' E 001°44'0 0.0
2017-May-18 15:00N 52°36' E 001°44'0 0.0
2017-May-18 14:24N 52°36' E 001°44'0 0.0
2017-May-18 11:03N 52°36' E 001°44'0 0.0
2017-May-18 10:12N 52°36' E 001°44'0 0.0
2017-May-18 09:54N 52°36' E 001°44'0 0.0
2017-May-18 09:30N 52°36' E 001°44'0 0.0
2017-May-18 09:00N 52°36' E 001°44'0 0.0
2017-May-18 08:30N 52°36' E 001°44'0 0.0
2017-May-18 08:00N 52°36' E 001°44'0 0.0
2017-May-18 07:27N 52°36' E 001°44'0 0.0
2017-May-18 06:42N 52°36' E 001°44'0 0.0
2017-May-18 06:24N 52°36' E 001°44'0 0.0
2017-May-18 06:00N 52°36' E 001°44'0 0.0
2017-May-18 05:27N 52°36' E 001°44'0 0.0
2017-May-18 04:51N 52°36' E 001°44'0 0.0
2017-May-18 04:30N 52°36' E 001°44'0 0.0
2017-May-18 03:57N 52°36' E 001°44'0 0.0
2017-May-18 03:30N 52°36' E 001°44'0 0.0
2017-May-18 03:00N 52°36' E 001°44'0 0.0
2017-May-18 02:30N 52°36' E 001°44'0 0.0
2017-May-18 02:00N 52°36' E 001°44'0 0.0
2017-May-18 01:30N 52°36' E 001°44'0 0.0
2017-May-18 00:51N 52°36' E 001°44'0 0.0
2017-May-18 00:27N 52°36' E 001°44'0 0.0
2017-May-17 23:51N 52°36' E 001°44'0 0.0
2017-May-17 23:27N 52°36' E 001°44'0 0.0
2017-May-17 21:51N 52°36' E 001°44'0 0.0
2017-May-17 21:27N 52°36' E 001°44'0 0.0
2017-May-17 20:51N 52°36' E 001°44'0 0.0
2017-May-17 20:21N 52°36' E 001°44'0 0.0
2017-May-17 18:21N 52°36' E 001°44'0 0.0
2017-May-17 17:57N 52°36' E 001°44'0 0.0
2017-May-17 17:09N 52°36' E 001°44'0 0.0
2017-May-17 16:57N 52°36' E 001°44'0 0.0
2017-May-17 16:27N 52°36' E 001°44'0 0.0
2017-May-17 16:00N 52°36' E 001°44'0 0.0
2017-May-17 15:27N 52°36' E 001°44'0 0.0
2017-May-17 15:00N 52°36' E 001°44'0 0.0
2017-May-17 13:57N 52°36' E 001°44'0 0.0
2017-May-17 13:30N 52°36' E 001°44'0 0.0
2017-May-17 12:57N 52°36' E 001°44'0 0.0
2017-May-17 10:39N 52°36' E 001°44'0 0.0
2017-May-17 10:27N 52°36' E 001°44'0 0.0
2017-May-17 10:00N 52°36' E 001°44'0 0.0
2017-May-17 09:30N 52°36' E 001°44'0 0.0
2017-May-17 09:00N 52°36' E 001°44'0 0.0
2017-May-17 08:30N 52°36' E 001°44'0 0.0
2017-May-17 07:57N 52°36' E 001°44'0 0.0
2017-May-17 07:27N 52°36' E 001°44'0 0.0
2017-May-17 06:57N 52°36' E 001°44'0 0.0
2017-May-17 06:27N 52°36' E 001°44'0 0.0
2017-May-17 05:45N 52°36' E 001°44'0 0.0
2017-May-17 05:27N 52°36' E 001°44'0 0.0
2017-May-17 04:57N 52°36' E 001°44'0 0.0
2017-May-17 03:51N 52°36' E 001°44'0 0.0
2017-May-17 03:27N 52°36' E 001°44'0 0.0
2017-May-17 02:51N 52°36' E 001°44'0 0.0
2017-May-17 02:30N 52°36' E 001°44'0 0.0
2017-May-17 01:54N 52°36' E 001°44'0 0.0
2017-May-17 01:30N 52°36' E 001°44'0 0.0
2017-May-17 00:54N 52°36' E 001°44'0 0.0
2017-May-17 00:30N 52°36' E 001°44'0 0.0
2017-May-17 00:00N 52°36' E 001°44'0 0.0
2017-May-16 23:30N 52°36' E 001°44'0 0.0
2017-May-16 22:57N 52°36' E 001°44'0 0.0
2017-May-16 22:30N 52°36' E 001°44'0 0.0
2017-May-16 22:00N 52°36' E 001°44'0 0.0
2017-May-16 21:30N 52°36' E 001°44'0 0.0
2017-May-16 21:00N 52°36' E 001°44'0 0.0
2017-May-16 20:27N 52°36' E 001°44'0 0.0
2017-May-16 20:00N 52°36' E 001°44'0 0.0
2017-May-16 19:30N 52°36' E 001°44'0 0.0
2017-May-16 19:00N 52°36' E 001°44'0 0.0
2017-May-16 18:30N 52°36' E 001°44'  
Track history (hours):
 
Tides and Currents Weather Stations Pressure Air Temp Water Temp Dewpoint Dewpoint Depression Visibility Wind Speed Wind Dir Waves Ship Positions

MTS Valour

Last reported at 2017-May-26 18:17 UTC. Time now 2017-May-26 18:41 UTC.
Position N 52°36' E 001°44'.

Length 24 m; draft 2.4 m.

Type: Tug. MMSI: 235040596.

Date/timePositionNaut miles runAvg speedWind from/ knotsBaromVisibWave heightAir tempDewpointWater temp
2017-May-26 18:17N 52°36' E 001°44'0 0.0
2017-May-26 17:59N 52°36' E 001°44'0 0.0
2017-May-26 17:29N 52°36' E 001°44'0 0.0
2017-May-26 16:56N 52°36' E 001°44'0 0.0
2017-May-26 16:29N 52°36' E 001°44'0 0.0
2017-May-26 15:53N 52°36' E 001°44'0 0.0
2017-May-26 15:26N 52°36' E 001°44'0 0.0
2017-May-26 14:44N 52°36' E 001°44'0 0.0
2017-May-26 14:23N 52°36' E 001°44'0 0.0
2017-May-26 12:56N 52°36' E 001°44'0 0.0
2017-May-26 12:08N 52°36' E 001°44'0 0.0
2017-May-26 11:44N 52°36' E 001°44'0 0.0
2017-May-26 11:26N 52°36' E 001°44'0 0.0
2017-May-26 10:56N 52°36' E 001°44'0 0.0
2017-May-26 10:20N 52°36' E 001°44'0 0.0
2017-May-26 09:56N 52°36' E 001°44'0 0.0
2017-May-26 09:26N 52°36' E 001°44'0 0.0
2017-May-26 08:56N 52°36' E 001°44'0 0.0
2017-May-26 08:26N 52°36' E 001°44'0 0.0
2017-May-26 07:59N 52°36' E 001°44'0 0.0
2017-May-26 07:29N 52°36' E 001°44'0 0.0
2017-May-26 06:59N 52°36' E 001°44'0 0.0
2017-May-26 06:29N 52°36' E 001°44'0 0.0
2017-May-26 05:59N 52°36' E 001°44'0 0.0
2017-May-26 05:29N 52°36' E 001°44'0 0.0
2017-May-26 04:47N 52°36' E 001°44'0 0.0
2017-May-26 04:26N 52°36' E 001°44'0 0.0
2017-May-26 03:59N 52°36' E 001°44'0 0.0
2017-May-26 03:05N 52°36' E 001°44'0 0.0
2017-May-26 02:59N 52°36' E 001°44'0 0.0
2017-May-25 23:53N 52°36' E 001°44'0 0.0
2017-May-25 23:29N 52°36' E 001°44'0 0.0
2017-May-25 22:56N 52°36' E 001°44'1 2.4
2017-May-25 22:31N 52°35' E 001°44'4 7.8
2017-May-25 22:00N 52°33' E 001°49'12 8.7
2017-May-25 20:35N 52°24' E 002°03'1 8.6
2017-May-25 20:30N 52°23' E 002°04'4 8.3
2017-May-25 20:01N 52°20' E 002°08'1 2.2
2017-May-25 19:31N 52°19' E 002°09'0 0.0
2017-May-25 19:01N 52°19' E 002°09'16 8.7
2017-May-25 17:08N 52°28' E 001°46'1 8.2
2017-May-25 17:01N 52°28' E 001°45'0 0.5
2017-May-25 16:31N 52°28' E 001°45'0 0.0
2017-May-25 16:00N 52°28' E 001°45'0 0.0
2017-May-25 15:30N 52°28' E 001°45'0 0.0
2017-May-25 15:00N 52°28' E 001°45'0 0.0
2017-May-25 14:00N 52°28' E 001°45'0 0.0
2017-May-25 13:30N 52°28' E 001°45'0 0.0
2017-May-25 13:00N 52°28' E 001°45'0 0.0
2017-May-25 12:30N 52°28' E 001°45'0 0.0
2017-May-25 12:00N 52°28' E 001°45'0 0.0
2017-May-25 11:30N 52°28' E 001°45'0 0.0
2017-May-25 11:00N 52°28' E 001°45'0 0.0
2017-May-25 10:30N 52°28' E 001°45'4 4.7
2017-May-25 09:41N 52°32' E 001°46'210.3
2017-May-25 09:31N 52°34' E 001°45'3 5.0
2017-May-25 09:01N 52°36' E 001°44'0 0.0
2017-May-25 08:31N 52°36' E 001°44'0 0.0
2017-May-25 08:01N 52°36' E 001°44'0 0.0
2017-May-25 07:31N 52°36' E 001°44'0 0.0
2017-May-25 07:00N 52°36' E 001°44'0 0.0
2017-May-25 06:30N 52°36' E 001°44'0 0.0
2017-May-25 06:00N 52°36' E 001°44'0 0.0
2017-May-25 05:30N 52°36' E 001°44'0 0.0
2017-May-25 04:54N 52°36' E 001°44'0 0.0
2017-May-25 03:51N 52°36' E 001°44'0 0.0
2017-May-25 03:24N 52°36' E 001°44'0 0.0
2017-May-25 01:27N 52°36' E 001°44'0 0.0
2017-May-25 00:57N 52°36' E 001°44'0 0.0
2017-May-24 23:39N 52°36' E 001°44'0 0.0
2017-May-24 23:30N 52°36' E 001°44'0 0.0
2017-May-24 21:21N 52°36' E 001°44'0 0.0
2017-May-24 20:57N 52°36' E 001°44'0 0.0
2017-May-24 20:27N 52°36' E 001°44'0 0.0
2017-May-24 19:57N 52°36' E 001°44'0 0.0
2017-May-24 19:24N 52°36' E 001°44'0 0.0
2017-May-24 18:57N 52°36' E 001°44'0 0.0
2017-May-24 18:27N 52°36' E 001°44'0 0.0
2017-May-24 18:00N 52°36' E 001°44'0 0.0
2017-May-24 17:30N 52°36' E 001°44'0 0.0
2017-May-24 16:57N 52°36' E 001°44'0 0.0
2017-May-24 16:30N 52°36' E 001°44'0 0.0
2017-May-24 16:00N 52°36' E 001°44'0 0.0
2017-May-24 15:30N 52°36' E 001°44'0 0.0
2017-May-24 15:00N 52°36' E 001°44'0 0.0
2017-May-24 14:27N 52°36' E 001°44'0 0.0
2017-May-24 13:27N 52°36' E 001°44'0 0.0
2017-May-24 12:57N 52°36' E 001°44'0 0.0
2017-May-24 12:27N 52°36' E 001°44'0 0.0
2017-May-24 11:57N 52°36' E 001°44'0 0.0
2017-May-24 11:27N 52°36' E 001°44'0 0.0
2017-May-24 11:00N 52°36' E 001°44'0 0.0
2017-May-24 10:27N 52°36' E 001°44'0 0.0
2017-May-24 09:57N 52°36' E 001°44'0 0.0
2017-May-24 09:30N 52°36' E 001°44'0 0.0
2017-May-24 09:00N 52°36' E 001°44'0 0.0
2017-May-24 08:30N 52°36' E 001°44'0 0.0
2017-May-24 08:00N 52°36' E 001°44'0 0.0
2017-May-24 07:30N 52°36' E 001°44'0 0.0
2017-May-24 06:57N 52°36' E 001°44'0 0.0
2017-May-24 06:30N 52°36' E 001°44'0 0.0
2017-May-24 05:54N 52°36' E 001°44'0 0.0
2017-May-24 05:30N 52°36' E 001°44'0 0.0
2017-May-24 04:54N 52°36' E 001°44'0 0.0
2017-May-24 04:15N 52°36' E 001°44'0 0.0
2017-May-24 04:00N 52°36' E 001°44'0 0.0
2017-May-24 03:30N 52°36' E 001°44'0 0.0
2017-May-24 02:15N 52°36' E 001°44'0 0.0
2017-May-24 01:57N 52°36' E 001°44'0 0.0
2017-May-24 01:15N 52°36' E 001°44'0 0.0
2017-May-23 16:33N 52°36' E 001°44'0 0.0
2017-May-23 16:21N 52°36' E 001°44'0 0.0
2017-May-23 15:57N 52°36' E 001°44'0 0.0
2017-May-23 15:27N 52°36' E 001°44'0 0.0
2017-May-23 15:00N 52°36' E 001°44'0 0.0
2017-May-23 13:45N 52°36' E 001°44'0 0.0
2017-May-23 13:27N 52°36' E 001°44'0 0.0
2017-May-23 13:00N 52°36' E 001°44'0 0.0
2017-May-23 12:21N 52°36' E 001°44'0 0.0
2017-May-23 11:57N 52°36' E 001°44'0 0.0
2017-May-23 11:27N 52°36' E 001°44'0 0.0
2017-May-23 10:57N 52°36' E 001°44'0 0.0
2017-May-23 10:30N 52°36' E 001°44'0 0.0
2017-May-23 10:00N 52°36' E 001°44'0 0.0
2017-May-23 09:30N 52°36' E 001°44'0 0.0
2017-May-23 08:57N 52°36' E 001°44'0 0.0
2017-May-23 08:30N 52°36' E 001°44'0 0.0
2017-May-23 08:00N 52°36' E 001°44'0 0.0
2017-May-23 07:30N 52°36' E 001°44'0 0.0
2017-May-23 07:00N 52°36' E 001°44'0 0.0
2017-May-23 06:30N 52°36' E 001°44'0 0.0
2017-May-23 06:00N 52°36' E 001°44'0 0.0
2017-May-23 05:30N 52°36' E 001°44'0 0.0
2017-May-23 05:00N 52°36' E 001°44'0 0.0
2017-May-23 04:27N 52°36' E 001°44'0 0.0
2017-May-23 03:45N 52°36' E 001°44'0 0.0
2017-May-23 03:30N 52°36' E 001°44'0 0.0
2017-May-23 02:51N 52°36' E 001°44'0 0.0
2017-May-23 02:18N 52°36' E 001°44'0 0.0
2017-May-23 02:00N 52°36' E 001°44'0 0.0
2017-May-23 01:30N 52°36' E 001°44'0 0.0
2017-May-23 00:21N 52°36' E 001°44'0 0.0
2017-May-22 22:33N 52°36' E 001°44'0 0.1
2017-May-22 22:27N 52°36' E 001°44'0 0.0
2017-May-22 21:51N 52°36' E 001°44'0 0.0
2017-May-22 21:27N 52°36' E 001°44'0 0.0
2017-May-22 20:57N 52°36' E 001°44'0 0.0
2017-May-22 18:33N 52°36' E 001°44'0 0.0
2017-May-22 18:24N 52°36' E 001°44'0 0.0
2017-May-22 17:51N 52°36' E 001°44'0 0.0
2017-May-22 17:18N 52°36' E 001°44'0 0.0
2017-May-22 16:57N 52°36' E 001°44'0 0.0
2017-May-22 16:27N 52°36' E 001°44'0 0.0
2017-May-22 15:57N 52°36' E 001°44'0 0.0
2017-May-22 15:27N 52°36' E 001°44'0 0.0
2017-May-22 14:57N 52°36' E 001°44'0 0.0
2017-May-22 13:03N 52°36' E 001°44'0 0.0
2017-May-22 13:00N 52°36' E 001°44'0 0.0
2017-May-22 12:30N 52°36' E 001°44'0 0.0
2017-May-22 12:00N 52°36' E 001°44'0 0.0
2017-May-22 11:30N 52°36' E 001°44'0 0.0
2017-May-22 11:00N 52°36' E 001°44'0 0.0
2017-May-22 10:30N 52°36' E 001°44'0 0.0
2017-May-22 10:00N 52°36' E 001°44'0 0.0
2017-May-22 09:30N 52°36' E 001°44'0 0.0
2017-May-22 09:00N 52°36' E 001°44'0 0.0
2017-May-22 08:24N 52°36' E 001°44'0 0.0
2017-May-22 08:00N 52°36' E 001°44'0 0.0
2017-May-22 07:30N 52°36' E 001°44'0 0.0
2017-May-22 07:00N 52°36' E 001°44'0 0.0
2017-May-22 06:30N 52°36' E 001°44'0 0.0
2017-May-22 06:00N 52°36' E 001°44'0 0.0
2017-May-22 05:30N 52°36' E 001°44'0 0.0
2017-May-22 05:00N 52°36' E 001°44'0 0.0
2017-May-22 04:30N 52°36' E 001°44'0 0.0
2017-May-22 04:00N 52°36' E 001°44'0 0.0
2017-May-22 03:24N 52°36' E 001°44'0 0.0
2017-May-22 03:00N 52°36' E 001°44'0 0.0
2017-May-22 02:27N 52°36' E 001°44'0 0.0
2017-May-22 02:00N 52°36' E 001°44'0 0.0
2017-May-22 01:30N 52°36' E 001°44'0 0.0
2017-May-22 00:54N 52°36' E 001°44'0 0.0
2017-May-22 00:24N 52°36' E 001°44'0 0.0
2017-May-22 00:00N 52°36' E 001°44'0 0.0
2017-May-21 23:30N 52°36' E 001°44'0 0.0
2017-May-21 22:48N 52°36' E 001°44'0 0.0
2017-May-21 22:30N 52°36' E 001°44'0 0.0
2017-May-21 21:36N 52°36' E 001°44'0 0.0
2017-May-21 21:30N 52°36' E 001°44'0 0.0
2017-May-21 20:12N 52°36' E 001°44'0 0.0
2017-May-21 19:48N 52°36' E 001°44'0 0.0
2017-May-21 19:15N 52°36' E 001°44'0 0.0
2017-May-21 18:48N 52°36' E 001°44'0 0.0
2017-May-21 18:24N 52°36' E 001°44'0 0.0
2017-May-21 17:57N 52°36' E 001°44'0 0.0
2017-May-21 17:30N 52°36' E 001°44'0 0.0
2017-May-21 16:57N 52°36' E 001°44'0 0.0
2017-May-21 16:30N 52°36' E 001°44'0 0.0
2017-May-21 16:00N 52°36' E 001°44'0 0.0
2017-May-21 15:30N 52°36' E 001°44'0 0.0
2017-May-21 14:54N 52°36' E 001°44'0 0.0
2017-May-21 14:30N 52°36' E 001°44'0 0.0
2017-May-21 13:27N 52°36' E 001°44'0 0.0
2017-May-21 12:48N 52°36' E 001°44'0 0.0
2017-May-21 12:30N 52°36' E 001°44'0 0.0
2017-May-21 11:57N 52°36' E 001°44'0 0.0
2017-May-21 11:30N 52°36' E 001°44'0 0.0
2017-May-21 11:00N 52°36' E 001°44'0 0.0
2017-May-21 10:30N 52°36' E 001°44'0 0.0
2017-May-21 10:00N 52°36' E 001°44'0 0.0
2017-May-21 09:30N 52°36' E 001°44'0 0.0
2017-May-21 08:57N 52°36' E 001°44'0 0.0
2017-May-21 08:30N 52°36' E 001°44'0 0.0
2017-May-21 08:00N 52°36' E 001°44'0 0.0
2017-May-21 07:30N 52°36' E 001°44'0 0.0
2017-May-21 06:54N 52°36' E 001°44'0 0.0
2017-May-21 06:27N 52°36' E 001°44'0 0.0
2017-May-21 06:00N 52°36' E 001°44'0 0.0
2017-May-21 04:03N 52°36' E 001°44'0 0.0
2017-May-21 03:48N 52°36' E 001°44'0 0.0
2017-May-21 03:30N 52°36' E 001°44'0 0.0
2017-May-21 03:00N 52°36' E 001°44'0 0.0
2017-May-21 02:30N 52°36' E 001°44'0 0.0
2017-May-21 01:54N 52°36' E 001°44'0 0.0
2017-May-21 01:30N 52°36' E 001°44'0 0.0
2017-May-21 00:57N 52°36' E 001°44'0 0.0
2017-May-21 00:27N 52°36' E 001°44'0 0.0
2017-May-21 00:00N 52°36' E 001°44'0 0.0
2017-May-20 23:30N 52°36' E 001°44'0 0.0
2017-May-20 23:00N 52°36' E 001°44'0 0.0
2017-May-20 22:30N 52°36' E 001°44'0 0.0
2017-May-20 22:00N 52°36' E 001°44'0 0.0
2017-May-20 21:30N 52°36' E 001°44'0 0.0
2017-May-20 21:00N 52°36' E 001°44'0 0.0
2017-May-20 20:27N 52°36' E 001°44'0 0.0
2017-May-20 19:57N 52°36' E 001°44'0 0.0
2017-May-20 19:21N 52°36' E 001°44'0 0.0
2017-May-20 18:48N 52°36' E 001°44'0 0.0
2017-May-20 18:30N 52°36' E 001°44'0 0.0
2017-May-20 18:00N 52°36' E 001°44'0 0.0
2017-May-20 17:24N 52°36' E 001°44'0 0.0
2017-May-20 16:51N 52°36' E 001°44'0 0.0
2017-May-20 16:30N 52°36' E 001°44'0 0.0
2017-May-20 15:57N 52°36' E 001°44'0 0.0
2017-May-20 15:30N 52°36' E 001°44'0 0.0
2017-May-20 15:00N 52°36' E 001°44'0 0.0
2017-May-20 14:30N 52°36' E 001°44'0 0.0
2017-May-20 13:30N 52°36' E 001°44'0 0.0
2017-May-20 12:57N 52°36' E 001°44'0 0.0
2017-May-20 12:30N 52°36' E 001°44'0 0.0
2017-May-20 11:57N 52°36' E 001°44'0 0.0
2017-May-20 11:27N 52°36' E 001°44'0 0.0
2017-May-20 11:00N 52°36' E 001°44'0 0.0
2017-May-20 10:24N 52°36' E 001°44'0 0.0
2017-May-20 10:00N 52°36' E 001°44'0 0.0
2017-May-20 09:30N 52°36' E 001°44'0 0.0
2017-May-20 09:00N 52°36' E 001°44'0 0.0
2017-May-20 08:30N 52°36' E 001°44'0 0.0
2017-May-20 08:00N 52°36' E 001°44'0 0.0
2017-May-20 07:30N 52°36' E 001°44'0 0.0
2017-May-20 07:00N 52°36' E 001°44'0 0.0
2017-May-20 06:30N 52°36' E 001°44'0 0.0
2017-May-20 06:00N 52°36' E 001°44'0 0.0
2017-May-20 04:21N 52°36' E 001°44'0 0.0
2017-May-20 02:33N 52°36' E 001°44'0 0.0
2017-May-20 02:12N 52°36' E 001°44'0 0.0
2017-May-20 02:00N 52°36' E 001°44'0 0.0
2017-May-20 01:27N 52°36' E 001°44'0 0.0
2017-May-19 23:30N 52°36' E 001°44'0 0.0
2017-May-19 22:54N 52°36' E 001°44'0 0.0
2017-May-19 20:00N 52°36' E 001°44'0 0.0
2017-May-19 19:27N 52°36' E 001°44'0 0.0
2017-May-19 18:57N 52°36' E 001°44'0 0.0
2017-May-19 18:30N 52°36' E 001°44'0 0.0
2017-May-19 17:51N 52°36' E 001°44'0 0.0
2017-May-19 17:21N 52°36' E 001°44'0 0.0
2017-May-19 16:57N 52°36' E 001°44'0 0.0
2017-May-19 16:30N 52°36' E 001°44'0 0.0
2017-May-19 15:57N 52°36' E 001°44'0 0.0
2017-May-19 15:27N 52°36' E 001°44'0 0.0
2017-May-19 14:57N 52°36' E 001°44'0 0.0
2017-May-19 14:27N 52°36' E 001°44'0 0.0
2017-May-19 13:21N 52°36' E 001°44'0 0.0
2017-May-19 13:00N 52°36' E 001°44'0 0.0
2017-May-19 12:30N 52°36' E 001°44'0 0.0
2017-May-19 12:00N 52°36' E 001°44'0 0.0
2017-May-19 11:00N 52°36' E 001°44'0 0.0
2017-May-19 10:30N 52°36' E 001°44'0 0.0
2017-May-19 10:00N 52°36' E 001°44'0 0.0
2017-May-19 09:30N 52°36' E 001°44'0 0.0
2017-May-19 09:00N 52°36' E 001°44'0 0.0
2017-May-19 08:27N 52°36' E 001°44'0 0.0
2017-May-19 07:57N 52°36' E 001°44'0 0.0
2017-May-19 07:30N 52°36' E 001°44'0 0.0
2017-May-19 07:00N 52°36' E 001°44'0 0.0
2017-May-19 06:30N 52°36' E 001°44'0 0.0
2017-May-19 05:57N 52°36' E 001°44'0 0.0
2017-May-19 05:30N 52°36' E 001°44'0 0.0
2017-May-19 05:00N 52°36' E 001°44'0 0.0
2017-May-19 04:27N 52°36' E 001°44'0 0.0
2017-May-19 03:57N 52°36' E 001°44'0 0.0
2017-May-19 03:27N 52°36' E 001°44'0 0.0
2017-May-19 02:57N 52°36' E 001°44'0 0.0
2017-May-19 02:30N 52°36' E 001°44'0 0.0
2017-May-19 02:00N 52°36' E 001°44'0 0.0
2017-May-19 01:30N 52°36' E 001°44'0 0.0
2017-May-19 01:00N 52°36' E 001°44'0 0.0
2017-May-19 00:27N 52°36' E 001°44'0 0.0
2017-May-18 23:57N 52°36' E 001°44'0 0.0
2017-May-18 23:27N 52°36' E 001°44'0 0.0
2017-May-18 23:00N 52°36' E 001°44'0 0.0
2017-May-18 22:30N 52°36' E 001°44'0 0.0
2017-May-18 21:57N 52°36' E 001°44'0 0.0
2017-May-18 21:24N 52°36' E 001°44'0 0.0
2017-May-18 16:00N 52°36' E 001°44'0 0.0
2017-May-18 15:30N 52°36' E 001°44'0 0.0
2017-May-18 15:00N 52°36' E 001°44'0 0.0
2017-May-18 14:24N 52°36' E 001°44'0 0.0
2017-May-18 11:03N 52°36' E 001°44'0 0.0
2017-May-18 10:12N 52°36' E 001°44'0 0.0
2017-May-18 09:54N 52°36' E 001°44'0 0.0
2017-May-18 09:30N 52°36' E 001°44'0 0.0
2017-May-18 09:00N 52°36' E 001°44'0 0.0
2017-May-18 08:30N 52°36' E 001°44'0 0.0
2017-May-18 08:00N 52°36' E 001°44'0 0.0
2017-May-18 07:27N 52°36' E 001°44'0 0.0
2017-May-18 06:42N 52°36' E 001°44'0 0.0
2017-May-18 06:24N 52°36' E 001°44'0 0.0
2017-May-18 06:00N 52°36' E 001°44'0 0.0
2017-May-18 05:27N 52°36' E 001°44'0 0.0
2017-May-18 04:51N 52°36' E 001°44'0 0.0
2017-May-18 04:30N 52°36' E 001°44'0 0.0
2017-May-18 03:57N 52°36' E 001°44'0 0.0
2017-May-18 03:30N 52°36' E 001°44'0 0.0
2017-May-18 03:00N 52°36' E 001°44'0 0.0
2017-May-18 02:30N 52°36' E 001°44'0 0.0
2017-May-18 02:00N 52°36' E 001°44'0 0.0
2017-May-18 01:30N 52°36' E 001°44'0 0.0
2017-May-18 00:51N 52°36' E 001°44'0 0.0
2017-May-18 00:27N 52°36' E 001°44'0 0.0
2017-May-17 23:51N 52°36' E 001°44'0 0.0
2017-May-17 23:27N 52°36' E 001°44'0 0.0
2017-May-17 21:51N 52°36' E 001°44'0 0.0
2017-May-17 21:27N 52°36' E 001°44'0 0.0
2017-May-17 20:51N 52°36' E 001°44'0 0.0
2017-May-17 20:21N 52°36' E 001°44'0 0.0
2017-May-17 18:21N 52°36' E 001°44'0 0.0
2017-May-17 17:57N 52°36' E 001°44'0 0.0
2017-May-17 17:09N 52°36' E 001°44'0 0.0
2017-May-17 16:57N 52°36' E 001°44'0 0.0
2017-May-17 16:27N 52°36' E 001°44'0 0.0
2017-May-17 16:00N 52°36' E 001°44'0 0.0
2017-May-17 15:27N 52°36' E 001°44'0 0.0
2017-May-17 15:00N 52°36' E 001°44'0 0.0
2017-May-17 13:57N 52°36' E 001°44'0 0.0
2017-May-17 13:30N 52°36' E 001°44'0 0.0
2017-May-17 12:57N 52°36' E 001°44'0 0.0
2017-May-17 10:39N 52°36' E 001°44'0 0.0
2017-May-17 10:27N 52°36' E 001°44'0 0.0
2017-May-17 10:00N 52°36' E 001°44'0 0.0
2017-May-17 09:30N 52°36' E 001°44'0 0.0
2017-May-17 09:00N 52°36' E 001°44'0 0.0
2017-May-17 08:30N 52°36' E 001°44'0 0.0
2017-May-17 07:57N 52°36' E 001°44'0 0.0
2017-May-17 07:27N 52°36' E 001°44'0 0.0
2017-May-17 06:57N 52°36' E 001°44'0 0.0
2017-May-17 06:27N 52°36' E 001°44'0 0.0
2017-May-17 05:45N 52°36' E 001°44'0 0.0
2017-May-17 05:27N 52°36' E 001°44'0 0.0
2017-May-17 04:57N 52°36' E 001°44'0 0.0
2017-May-17 03:51N 52°36' E 001°44'0 0.0
2017-May-17 03:27N 52°36' E 001°44'0 0.0
2017-May-17 02:51N 52°36' E 001°44'0 0.0
2017-May-17 02:30N 52°36' E 001°44'0 0.0
2017-May-17 01:54N 52°36' E 001°44'0 0.0
2017-May-17 01:30N 52°36' E 001°44'0 0.0
2017-May-17 00:54N 52°36' E 001°44'0 0.0
2017-May-17 00:30N 52°36' E 001°44'0 0.0
2017-May-17 00:00N 52°36' E 001°44'0 0.0
2017-May-16 23:30N 52°36' E 001°44'0 0.0
2017-May-16 22:57N 52°36' E 001°44'0 0.0
2017-May-16 22:30N 52°36' E 001°44'0 0.0
2017-May-16 22:00N 52°36' E 001°44'0 0.0
2017-May-16 21:30N 52°36' E 001°44'0 0.0
2017-May-16 21:00N 52°36' E 001°44'0 0.0
2017-May-16 20:27N 52°36' E 001°44'0 0.0
2017-May-16 20:00N 52°36' E 001°44'0 0.0
2017-May-16 19:30N 52°36' E 001°44'0 0.0
2017-May-16 19:00N 52°36' E 001°44'0 0.0
2017-May-16 18:30N 52°36' E 001°44'  

Dump ship's entire track history